KPGA

Page Municipal Airport

Page, Arizona, USA
METAR KPGA 230853Z AUTO 00000KT 10SM CLR 11/09 A3011 RMK AO2 SLP163 60000 T01060094 53002 TSNO
Observed Flight Rules
Oct-23 @ 08:53 UTC (46 minutes ago) Visual Flight Rules
Visibility Clouds
10 miles
  • Clear skies
Temperatures Readings
Current 11°C / 52°F
Dewpoint 9°C / 48°F
Humidity 88%
Altimeter 30.11" Hg
Pressure 1016.3 hPa
Elevation 1307
METAR KPGA 230853Z AUTO 00000KT 10SM CLR 11/09 A3011 RMK AO2 SLP163 60000 T01060094 53002 TSNO
Observed Flight Rules
Oct-23 @ 08:53 UTC
(46 minutes ago)
VFR
Clouds
  • Clear skies
Temperature Dewpoint
11°C / 52°F 9°C / 48°F
Humidity Altimeter Pressure
88% 30.11" Hg 1016.3 hPa